Latest Coastal Weather Observations for Brisbane Airport

IDQ60701

Issued at 11:52 pm EST Sunday 20 October 2019 (issued every 10 minutes, with the page automatically refreshed every 10 minutes)

About coastal observations | Map of coastal stations | Coastal observations for QLD | Marine services | Other Formats
Station Details ID: 040842 Name: BRISBANE AERO Lat: -27.39 Lon: 153.13 Height: 4.51 m
Data from the previous 72 hours. | See also: Recent months at Brisbane Airport
Date/Time
EST
Wind Sea
Height
m
Swell Vis
km
Cloud Weather Temp
°C
Press
hPa
Rain since
9am
mm
Dir  Spd
kts
Gust
kts
Height
m
Period
s
Dir
20/11:30pm SSE 8 14 - - - - 10 Mostly clear - 20.1 1022.4 0.0
20/11:00pm S 7 14 - - - - 10 Mostly clear - 20.2 1022.3 0.0
20/10:30pm SSE 9 15 - - - - 10 Mostly clear - 20.4 1022.3 0.0
20/10:00pm SSE 9 15 - - - - 10 Partly cloudy - 20.8 1022.1 0.0
20/09:30pm SE 7 13 - - - - 10 Partly cloudy - 20.8 1022.0 0.0
20/09:00pm SSE 9 17 - - - - 20 Mostly cloudy Fine 20.9 1021.7 0.0
20/08:30pm SSE 9 16 - - - - 10 Mostly clear - 21.1 1021.6 0.0
20/08:00pm SE 10 16 - - - - 10 Mostly clear - 21.0 1021.3 0.0
20/07:30pm SE 10 17 - - - - 10 Mostly clear - 21.2 1020.7 0.0
20/07:00pm SE 12 19 - - - - 10 Mostly clear - 21.1 1020.0 0.0
20/06:30pm SE 13 22 - - - - 10 Mostly clear - 21.2 1019.5 0.0
20/06:00pm SE 13 21 - - - - 20 Mostly clear Distant precip. 21.4 1018.5 0.0
20/05:30pm SE 15 24 - - - - 10 Mostly clear - 21.6 1018.0 0.0
20/05:00pm SE 16 28 - - - - 10 Mostly clear - 21.8 1017.6 0.0
20/04:30pm SE 15 26 - - - - 10 Mostly clear - 22.0 1017.3 0.0
20/04:00pm SE 16 29 - - - - 10 Mostly clear - 22.2 1016.9 0.0
20/03:35pm SE 16 27 - - - - 10 Mostly clear - 22.5 1016.8 0.0
20/03:30pm SE 15 22 - - - - 10 Mostly clear - 22.8 1016.8 0.0
20/03:00pm SE 16 26 - - - - 14 Mostly clear Smoke 23.3 1016.5 0.0
20/02:41pm SE 15 25 - - - - 10 - - 23.3 1016.4 0.0
20/02:30pm SE 16 25 - - - - 10 Mostly clear - 23.2 1016.3 0.0
20/02:00pm SE 16 27 - - - - 10 Mostly clear - 24.1 1016.3 0.0
20/01:45pm ESE 15 29 - - - - 10 Mostly clear - 24.2 1016.3 0.0
20/01:30pm ESE 14 21 - - - - 10 Mostly clear - 24.7 1016.4 0.0
20/01:10pm ESE 15 27 - - - - 10 - - 24.9 1016.4 0.0
20/01:00pm SE 14 21 - - - - 10 Mostly clear - 24.5 1016.5 0.0
20/12:39pm SE 16 28 - - - - 10 Mostly clear - 24.9 1016.7 0.0
20/12:30pm SE 15 24 - - - - 10 Mostly clear - 25.3 1016.7 0.0
20/12:00pm SE 15 24 - - - - 14 Mostly clear Dust 24.7 1016.7 0.0
20/11:30am SE 12 19 - - - - 10 Mostly clear - 25.2 1016.8 0.0
20/11:00am ESE 12 19 - - - - 10 Mostly clear - 24.4 1016.9 0.0
20/10:30am ESE 10 16 - - - - 10 Mostly clear - 24.4 1017.2 0.0
20/10:00am ESE 8 11 - - - - 10 Mostly clear - 23.3 1017.5 0.0
20/09:30am ESE 7 10 - - - - 10 Mostly clear - 23.1 1017.7 0.0
20/09:00am SE 6 11 - - - - 15 Mostly clear Smoke 23.1 1017.7 6.2
20/08:30am S 8 14 - - - - 10 Mostly clear - 22.1 1017.8 6.2
20/08:00am SSE 8 14 - - - - 10 Mostly clear - 20.9 1017.5 6.2
20/07:30am SSW 5 6 - - - - 10 Mostly clear - 19.4 1016.3 6.2
20/07:00am SW 6 7 - - - - 10 - - 18.1 1016.0 6.2
20/06:30am WSW 8 9 - - - - 10 - - 17.2 1015.7 6.2
20/06:00am WSW 7 8 - - - - 15 Clear Distant fog 16.4 1015.4 6.2
20/05:30am WSW 9 10 - - - - 10 - - 15.5 1015.0 6.2
20/05:00am WSW 8 9 - - - - 8 Mostly clear - 16.1 1014.9 6.2
20/04:30am WSW 8 9 - - - - 10 Mostly clear - 16.6 1014.8 6.2
20/04:00am WSW 8 9 - - - - 8 Mostly cloudy - 17.1 1014.6 6.2
20/03:30am SW 6 9 - - - - 8 Cloudy - 17.7 1014.4 6.2
20/03:00am SW 5 6 - - - - 8 Cloudy Smoke 18.2 1014.4 6.2
20/02:30am S 4 6 - - - - 8 Cloudy - 18.6 1014.3 6.2
20/02:00am S 3 4 - - - - 9 Cloudy - 19.3 1014.3 6.2
20/01:30am SSW 5 7 - - - - 10 Cloudy - 19.6 1014.5 6.2
20/01:00am SW 5 8 - - - - 10 Cloudy - 20.0 1014.8 6.2
20/12:30am WSW 6 8 - - - - 9 Partly cloudy - 19.6 1014.9 6.2
20/12:00am WNW 5 6 - - - - 1 Cloudy Distant fog 20.1 1015.1 6.2
 
Date/Time
EST
Wind Sea
Height
m
Swell Vis
km
Cloud Weather Temp
°C
Press
hPa
Rain since
9am
mm
Dir  Spd
kts
Gust
kts
Height
m
Period
s
Dir
19/11:30pm WNW 6 11 - - - - 0.5 Mostly clear Fog 20.3 1015.0 6.2
19/11:00pm WNW 5 6 - - - - 10 Cloudy - 20.5 1014.8 6.2
19/10:30pm NW 2 6 - - - - 10 Partly cloudy Shallow fog 19.7 1014.7 6.2
19/10:00pm NNW 4 5 - - - - 10 - - 19.5 1014.7 6.2
19/09:30pm N 1 4 - - - - 10 - - 20.1 1014.7 6.2
19/09:00pm N 7 14 - - - - 20 Mostly clear Smoke 20.7 1015.0 6.2
19/08:40pm N 8 9 - - - - 10 Partly cloudy - 20.8 1014.6 6.2
19/08:30pm NNW 7 10 - - - - 10 Mostly clear - 21.0 1014.6 6.2
19/08:00pm NW 5 7 - - - - 10 Mostly cloudy - 21.6 1014.8 6.2
19/07:30pm NW 6 8 - - - - 10 Mostly cloudy - 21.7 1014.7 6.2
19/07:00pm N 8 10 - - - - 10 Partly cloudy - 21.6 1014.1 6.2
19/06:30pm NNE 9 14 - - - - 10 Partly cloudy - 21.9 1013.7 6.2
19/06:09pm NNE 10 14 - - - - 10 Partly cloudy - 21.6 1013.5 6.2
19/06:00pm NNE 10 14 - - - - 20 Mostly cloudy Recent precip. 21.6 1013.2 6.2
19/05:30pm NE 7 9 - - - - 10 Mostly clear - 22.2 1012.8 6.0
19/05:00pm NE 9 12 - - - - 10 Mostly clear - 22.2 1012.8 6.0
19/04:30pm NE 9 11 - - - - 10 Mostly clear - 22.0 1012.9 6.0
19/04:00pm NE 8 10 - - - - 10 Mostly clear - 22.0 1013.1 6.0
19/03:30pm ENE 7 9 - - - - 10 Mostly clear - 22.4 1013.3 6.0
19/03:00pm NE 7 9 - - - - 18 Partly cloudy Recent precip. 23.3 1013.3 6.0
19/02:30pm NE 7 9 - - - - 10 Mostly clear - 22.7 1013.5 6.0
19/02:00pm NE 6 7 - - - - 10 Mostly clear - 22.3 1014.1 6.0
19/01:30pm N 5 8 - - - - 10 Mostly clear - 23.4 1014.3 6.0
19/01:00pm NE 6 7 - - - - 10 Mostly clear - 22.7 1015.1 6.0
19/12:30pm SSE 4 6 - - - - 10 Mostly clear Thunder 21.3 1015.4 6.0
19/12:23pm SW 8 15 - - - - 10 Mostly clear Thunderstorm 20.4 1015.7 6.0
19/12:10pm SW 10 14 - - - - 2 Mostly clear Thunderstorm 21.5 1016.6 0.0
19/12:00pm SSW 8 10 - - - - 15 Cloudy Thunderstorm 22.2 1016.3 0.0
19/11:30am ESE 4 6 - - - - 10 Mostly clear Thunder 22.9 1016.5 0.0
19/11:00am SSW 6 9 - - - - 10 Partly cloudy - 23.2 1017.0 0.0
19/10:30am ESE 3 6 - - - - 10 Mostly clear Showers 22.5 1017.5 0.0
19/10:00am SSW 5 7 - - - - 10 Mostly clear - 22.5 1017.7 0.0
19/09:30am ESE 5 6 - - - - 10 Cloudy - 22.2 1018.1 0.0
19/09:00am SE 5 7 - - - - 15 Mostly cloudy Distant precip. 22.7 1018.2 0.0
19/08:30am S 6 9 - - - - 10 Mostly clear - 22.8 1018.1 0.0
19/08:00am S 5 7 - - - - 10 Partly cloudy - 21.4 1018.2 0.0
19/07:30am SSW 6 8 - - - - 10 Mostly cloudy - 20.6 1018.2 0.0
19/07:00am SSW 6 8 - - - - 10 Mostly cloudy - 19.8 1018.3 0.0
19/06:30am SSW 6 8 - - - - 10 Mostly clear - 19.2 1018.3 0.0
19/06:00am SW 7 8 - - - - 15 Cloudy Smoke 19.1 1018.0 0.0
19/05:30am S 5 6 - - - - 10 Mostly clear - 18.7 1017.2 0.0
19/05:00am SSW 4 6 - - - - 10 Mostly clear - 18.8 1016.9 0.0
19/04:30am SSW 5 6 - - - - 10 Partly cloudy - 18.6 1016.8 0.0
19/04:00am S 4 5 - - - - 10 Mostly clear - 18.9 1016.6 0.0
19/03:30am CALM 0 0 - - - - 10 Mostly cloudy - 18.8 1017.0 0.0
19/03:00am SSE 3 4 - - - - 15 Partly cloudy Smoke 19.4 1016.8 0.0
19/02:30am SE 4 5 - - - - 10 Mostly clear - 19.2 1017.1 0.0
19/02:00am E 4 4 - - - - 10 Mostly clear - 19.5 1017.3 0.0
19/01:30am ENE 3 4 - - - - 10 Mostly clear - 20.2 1017.4 0.0
19/01:00am ENE 6 9 - - - - 10 Mostly cloudy - 20.7 1017.8 0.0
19/12:30am ENE 6 8 - - - - 10 Mostly cloudy - 20.4 1017.8 0.0
19/12:00am ENE 7 10 - - - - 15 Partly cloudy Smoke 20.7 1018.1 0.0
 
Date/Time
EST
Wind Sea
Height
m
Swell Vis
km
Cloud Weather Temp
°C
Press
hPa
Rain since
9am
mm
Dir  Spd
kts
Gust
kts
Height
m
Period
s
Dir
18/11:30pm ENE 7 10 - - - - 10 Mostly clear - 20.9 1018.3 0.0
18/11:00pm E 5 6 - - - - 10 Partly cloudy - 20.9 1018.3 0.0
18/10:30pm E 6 9 - - - - 10 Mostly clear - 20.7 1018.2 0.0
18/10:00pm ESE 6 9 - - - - 10 Mostly cloudy - 21.0 1018.2 0.0
18/09:30pm E 6 8 - - - - 10 Partly cloudy - 21.1 1018.5 0.0
18/09:00pm E 5 9 - - - - 15 Mostly cloudy Smoke 21.1 1018.3 0.0
18/08:30pm E 7 10 - - - - 10 Mostly clear - 21.0 1017.8 0.0
18/08:00pm ESE 6 10 - - - - 10 Mostly clear - 21.0 1017.5 0.0
18/07:30pm ESE 7 11 - - - - 10 Mostly clear - 21.0 1017.3 0.0
18/07:00pm ESE 8 11 - - - - 10 Mostly clear - 21.3 1016.9 0.0
18/06:30pm ESE 7 13 - - - - 10 Mostly clear - 21.4 1016.3 0.0
18/06:00pm ESE 7 13 - - - - 15 Mostly clear Smoke 21.8 1015.8 0.0
18/05:30pm ESE 9 13 - - - - 10 - - 22.1 1015.6 0.0
18/05:00pm E 9 15 - - - - 10 - - 22.7 1015.2 0.0
18/04:30pm E 11 16 - - - - 10 - - 23.2 1014.9 0.0
18/04:00pm E 12 18 - - - - 10 - - 23.4 1014.8 0.0
18/03:30pm ENE 14 19 - - - - 10 - - 23.7 1014.8 0.0
18/03:00pm ENE 13 18 - - - - 15 Mostly clear Smoke 24.3 1015.0 0.0
18/02:30pm ESE 9 15 - - - - 10 Mostly clear - 24.5 1015.2 0.0
18/02:00pm ESE 10 15 - - - - 10 Mostly clear - 25.1 1015.6 0.0
18/01:30pm ESE 9 16 - - - - 10 Mostly clear - 24.7 1016.1 0.0
18/01:00pm ESE 9 14 - - - - 10 Mostly clear - 24.9 1016.4 0.0
18/12:50pm ESE 10 16 - - - - 10 Mostly clear - 24.5 1016.5 0.0
18/12:30pm ESE 9 15 - - - - 10 Mostly clear - 25.0 1016.8 0.0
18/12:00pm SE 10 16 - - - - 10 Mostly clear Smoke 24.5 1017.0 0.0
18/11:30am SE 10 16 - - - - 10 Mostly clear - 24.6 1017.3 0.0
18/11:00am ESE 12 17 - - - - 10 Mostly clear - 24.4 1017.5 0.0
18/10:30am SE 11 17 - - - - 10 Mostly clear - 24.3 1017.5 0.0
18/10:00am SE 10 16 - - - - 10 Mostly clear - 23.9 1017.5 0.0
18/09:30am SE 12 18 - - - - 10 Partly cloudy - 23.8 1017.4 0.0
18/09:00am SE 10 16 - - - - 10 Partly cloudy Smoke 23.9 1017.6 5.8
18/08:30am SE 10 16 - - - - 9 Mostly clear - 23.5 1017.2 5.8
18/08:00am SE 10 16 - - - - 9 Mostly clear - 23.1 1017.1 5.8
18/07:30am SE 10 16 - - - - 10 Mostly clear - 22.5 1016.6 5.8
18/07:00am SE 9 17 - - - - 8 Partly cloudy - 21.9 1016.3 5.8
18/06:30am SSE 7 13 - - - - 10 - - 21.7 1016.0 5.8
18/06:00am S 5 7 - - - - 15 Mostly clear Smoke 20.6 1015.4 5.8
18/05:30am S 6 8 - - - - 10 - - 20.3 1014.8 5.8
18/05:00am S 5 6 - - - - 10 - - 19.8 1013.9 5.8
18/04:30am S 5 6 - - - - 10 - - 19.7 1013.1 5.8
18/04:00am S 4 6 - - - - 10 - - 19.9 1012.7 5.8
18/03:30am SSW 5 7 - - - - 10 - - 19.3 1012.8 5.8
18/03:00am SSW 8 10 - - - - 25 Partly cloudy Fine 19.2 1012.5 5.8
18/02:30am SW 5 6 - - - - 10 - - 19.3 1012.6 5.8
18/02:00am SSW 7 9 - - - - 10 - - 19.9 1012.5 5.8
18/01:30am SSW 7 8 - - - - 10 - - 19.7 1012.7 5.8
18/01:00am SSW 5 7 - - - - 10 - - 19.9 1013.2 5.8
18/12:30am SSW 5 6 - - - - 10 - - 20.2 1013.4 5.8
18/12:00am SSW 8 11 - - - - 25 Mostly clear Fine 20.8 1013.5 5.8

Other formats

Comma delimited format used in spreadsheet applications
http://www.bom.gov.au/fwo/IDQ60701/IDQ60701.94578.axf

JavaScript Object Notation format (JSON) in row-major order
http://www.bom.gov.au/fwo/IDQ60701/IDQ60701.94578.json

Data quality

Most of these data are generated automatically and are frequently updated. Quality checks on data are not normally performed. It is possible for incorrect values to appear. Refer to information at About Latest Weather Observations and please check the disclaimer before using these data.